Time;durP1;ratioP1;P1;durP2;ratioP2;P2;SDS_P1;SDS_P2;PMS_P1;PMS_P2;Temp;Humidity;BMP_temperature;BMP_pressure;BME280_temperature;BME280_humidity;BME280_pressure;Samples;Min_cycle;Max_cycle;Signal;HPM_P1;HPM_P2
2021/05/14 00:01:06;;;;;;;3.67;2.60;;;;;;;12.89;100.00;96718.34;4848019;29;20124;-83
2021/05/14 00:03:31;;;;;;;3.15;1.95;;;;;;;12.91;100.00;96716.41;4862764;29;20064;-83
2021/05/14 00:05:57;;;;;;;5.82;2.65;;;;;;;12.85;100.00;96714.22;4863239;29;20044;-83
2021/05/14 00:08:23;;;;;;;3.75;2.45;;;;;;;12.90;100.00;96712.00;4863658;29;20025;-84
2021/05/14 00:10:48;;;;;;;6.30;2.10;;;;;;;12.89;100.00;96711.13;4863395;29;20088;-83
2021/05/14 00:13:14;;;;;;;7.07;2.25;;;;;;;12.93;100.00;96711.75;4846893;29;20068;-83
2021/05/14 00:15:40;;;;;;;5.00;2.40;;;;;;;12.95;100.00;96702.56;4863243;29;20115;-83
2021/05/14 00:18:05;;;;;;;3.97;2.30;;;;;;;12.99;99.87;96698.66;4863683;29;20085;-83
2021/05/14 00:20:31;;;;;;;2.65;2.20;;;;;;;12.99;99.95;96700.47;4877605;29;20032;-84
2021/05/14 00:22:57;;;;;;;4.13;2.58;;;;;;;13.00;99.44;96696.81;4862930;29;20017;-83
2021/05/14 00:25:22;;;;;;;2.92;2.40;;;;;;;13.01;100.00;96694.00;4879681;29;20029;-83
2021/05/14 00:27:48;;;;;;;5.65;2.55;;;;;;;13.03;100.00;96693.88;4847228;29;20036;-83
2021/05/14 00:30:14;;;;;;;5.05;2.55;;;;;;;13.01;100.00;96691.31;4862575;29;20080;-83
2021/05/14 00:32:40;;;;;;;8.30;2.72;;;;;;;12.92;100.00;96692.09;4847147;29;20033;-83
2021/05/14 00:35:06;;;;;;;6.72;2.80;;;;;;;12.70;100.00;96694.06;4847133;29;20043;-83
2021/05/14 00:38:21;;;;;;;;;;;;;;;;;;;;;
2021/05/14 00:41:33;;;;;;;;;;;;;;;;;;;;;
2021/05/14 00:44:25;;;;;;;5.55;3.75;;;;;;;12.11;100.00;96699.84;4859465;29;20041;-84
2021/05/14 00:47:31;;;;;;;;;;;;;;;;;;;;;
2021/05/14 00:50:22;;;;;;;5.65;4.22;;;;;;;11.64;100.00;96646.53;4871979;29;20033;-85
2021/05/14 00:53:22;;;;;;;;;;;;;;;;;;;;;
2021/05/14 00:55:54;;;;;;;10.85;4.35;;;;;;;11.53;100.00;96681.38;4867628;29;20033;-86
2021/05/14 00:58:34;;;;;;;8.98;5.68;;;;;;;11.38;100.00;96672.75;4835940;29;20040;-84
2021/05/14 01:01:23;;;;;;;;;;;;;;;;;;;;;
2021/05/14 01:03:48;;;;;;;14.48;6.32;;;;;;;11.36;100.00;96685.38;4867629;29;20108;-84
2021/05/14 01:10:28;;;;;;;20.67;6.38;;;;;;;11.03;100.00;96643.38;4874661;29;20048;-85
2021/05/14 01:12:54;;;;;;;15.15;6.10;;;;;;;11.26;100.00;96689.75;4800635;29;20497;-82
2021/05/14 01:16:26;;;;;;;9.10;5.70;;;;;;;11.36;100.00;96723.72;4858522;29;20291;-85
2021/05/14 01:19:52;;;;;;;;;;;;;;;;;;;;;
2021/05/14 01:23:01;;;;;;;15.77;4.80;;;;;;;11.26;100.00;96714.69;4796268;29;20049;-86
2021/05/14 01:25:52;;;;;;;5.85;4.35;;;;;;;10.86;100.00;96646.50;4770027;29;20053;-84
2021/05/14 01:28:18;;;;;;;9.13;4.57;;;;;;;11.26;100.00;96713.84;4834674;29;20056;-84
2021/05/14 01:30:44;;;;;;;7.70;4.20;;;;;;;11.15;100.00;96695.97;4837973;29;20045;-84
2021/05/14 01:33:10;;;;;;;9.65;4.80;;;;;;;11.18;100.00;96706.44;4833914;29;20041;-84
2021/05/14 01:35:35;;;;;;;6.85;4.70;;;;;;;11.24;100.00;96723.81;4844226;29;20485;-84
2021/05/14 01:38:01;;;;;;;10.98;4.57;;;;;;;11.21;100.00;96710.69;4835183;29;20072;-84
2021/05/14 01:40:27;;;;;;;9.90;4.63;;;;;;;11.18;100.00;96714.44;4858459;29;20044;-84
2021/05/14 01:42:52;;;;;;;12.27;3.97;;;;;;;11.21;100.00;96708.00;4846569;29;20033;-84
2021/05/14 01:45:18;;;;;;;11.13;4.95;;;;;;;11.24;100.00;96710.44;4858858;29;20048;-84
2021/05/14 01:47:44;;;;;;;7.63;4.00;;;;;;;11.28;100.00;96710.09;4875698;29;20029;-84
2021/05/14 01:50:10;;;;;;;9.35;3.92;;;;;;;11.26;100.00;96704.00;4846111;29;20052;-86
2021/05/14 01:52:36;;;;;;;8.27;4.50;;;;;;;11.15;100.00;96695.09;4854201;29;20066;-83
2021/05/14 01:55:03;;;;;;;6.80;3.67;;;;;;;11.20;100.00;96715.16;4853688;29;20127;-83
2021/05/14 01:57:29;;;;;;;9.00;4.20;;;;;;;11.20;100.00;96717.00;4853688;29;20072;-84
2021/05/14 01:59:54;;;;;;;11.68;3.90;;;;;;;11.16;100.00;96712.88;4856324;29;20040;-84
2021/05/14 02:02:21;;;;;;;9.23;3.83;;;;;;;11.17;100.00;96712.75;4851701;29;20087;-84
2021/05/14 02:04:47;;;;;;;13.85;3.55;;;;;;;11.15;100.00;96706.66;4869516;29;20564;-84
2021/05/14 02:07:13;;;;;;;7.72;3.30;;;;;;;11.13;100.00;96702.41;4858634;29;20032;-84
2021/05/14 02:09:39;;;;;;;8.00;3.60;;;;;;;11.25;100.00;96739.78;4876465;29;20029;-84
2021/05/14 02:12:06;;;;;;;2.53;1.65;;;;;;;11.12;100.00;96728.31;4892265;29;20060;-84
2021/05/14 02:14:31;;;;;;;11.52;1.90;;;;;;;11.15;100.00;96728.06;4893058;29;20025;-84
2021/05/14 02:16:57;;;;;;;3.33;1.70;;;;;;;11.15;100.00;96728.06;4856862;29;20714;-84
2021/05/14 02:19:22;;;;;;;6.93;2.78;;;;;;;11.19;100.00;96734.91;4872566;29;20021;-84
2021/05/14 02:21:48;;;;;;;4.65;1.90;;;;;;;11.18;100.00;96735.88;4848741;29;20084;-84
2021/05/14 02:24:13;;;;;;;4.88;2.13;;;;;;;11.15;100.00;96741.44;4870875;29;20032;-84
2021/05/14 02:26:39;;;;;;;5.55;2.20;;;;;;;11.18;100.00;96743.91;4872567;29;20524;-84
2021/05/14 02:29:04;;;;;;;6.80;2.00;;;;;;;11.13;100.00;96740.72;4857505;29;20108;-83
2021/05/14 02:31:30;;;;;;;8.10;1.90;;;;;;;11.16;100.00;96740.50;4871354;29;20036;-84
2021/05/14 02:33:56;;;;;;;3.15;1.60;;;;;;;11.13;100.00;96762.16;4860196;29;20048;-83
2021/05/14 02:36:22;;;;;;;3.92;1.80;;;;;;;11.09;100.00;96749.09;4880496;29;20036;-84
2021/05/14 02:38:47;;;;;;;3.47;1.80;;;;;;;10.98;100.00;96751.75;4880935;29;20143;-84
2021/05/14 02:41:14;;;;;;;3.42;2.10;;;;;;;10.96;100.00;96732.28;4856791;29;20045;-84
2021/05/14 02:43:40;;;;;;;12.18;1.90;;;;;;;11.04;100.00;96751.28;4872834;29;20045;-84
2021/05/14 02:46:06;;;;;;;10.43;2.53;;;;;;;10.97;100.00;96753.56;4874782;29;20039;-84
2021/05/14 02:48:32;;;;;;;4.13;1.63;;;;;;;10.95;100.00;96752.00;4883514;29;20040;-86
2021/05/14 02:50:58;;;;;;;6.88;1.60;;;;;;;10.88;100.00;96768.50;4873793;29;20040;-83
2021/05/14 02:53:23;;;;;;;2.33;1.40;;;;;;;10.84;100.00;96767.03;4877755;29;20052;-84
2021/05/14 02:55:49;;;;;;;8.75;1.33;;;;;;;10.86;100.00;96770.44;4860162;29;20029;-83
2021/05/14 02:58:14;;;;;;;3.35;1.40;;;;;;;10.79;100.00;96768.34;4860072;29;20033;-84
2021/05/14 03:00:40;;;;;;;5.32;2.15;;;;;;;10.77;100.00;96773.78;4853345;29;20032;-83
2021/05/14 03:03:06;;;;;;;5.15;1.58;;;;;;;10.69;100.00;96778.88;4874180;29;20511;-83
2021/05/14 03:05:31;;;;;;;3.53;1.70;;;;;;;10.69;100.00;96778.03;4859813;29;20385;-84
2021/05/14 03:07:57;;;;;;;3.47;1.30;;;;;;;10.71;100.00;96781.41;4875042;29;20488;-84
2021/05/14 03:10:23;;;;;;;1.73;1.15;;;;;;;10.63;100.00;96773.13;4855697;29;20029;-84
2021/05/14 03:12:48;;;;;;;8.75;1.35;;;;;;;10.64;100.00;96778.34;4856350;29;20489;-85
2021/05/14 03:15:14;;;;;;;3.97;1.67;;;;;;;10.58;100.00;96780.66;4848769;29;20032;-84
2021/05/14 03:17:40;;;;;;;5.95;1.60;;;;;;;10.68;100.00;96787.84;4856579;29;20420;-85
2021/05/14 03:20:07;;;;;;;6.80;2.00;;;;;;;10.66;100.00;96779.09;4873446;29;20038;-85
2021/05/14 03:22:33;;;;;;;4.72;1.60;;;;;;;10.55;100.00;96765.66;4862681;29;20036;-83
2021/05/14 03:24:59;;;;;;;2.80;1.60;;;;;;;10.65;100.00;96781.88;4857068;29;20409;-83
2021/05/14 03:27:25;;;;;;;1.60;1.35;;;;;;;10.60;100.00;96773.34;4862058;29;20039;-82
2021/05/14 03:29:50;;;;;;;2.28;1.27;;;;;;;10.58;100.00;96765.44;4871798;29;20040;-88
2021/05/14 03:32:16;;;;;;;11.88;2.00;;;;;;;10.75;100.00;96777.56;4855743;29;20039;-84
2021/05/14 03:34:41;;;;;;;2.53;1.45;;;;;;;10.85;99.88;96768.75;4854060;29;20039;-80
2021/05/14 03:37:07;;;;;;;3.13;1.50;;;;;;;10.94;97.15;96753.81;4847551;29;20048;-80
2021/05/14 03:39:38;;;;;;;7.93;1.95;;;;;;;11.05;95.52;96759.19;4854714;29;20044;-81
2021/05/14 03:42:12;;;;;;;7.75;1.92;;;;;;;11.19;95.40;96761.66;4879191;29;20048;-80
2021/05/14 03:44:38;;;;;;;6.60;1.90;;;;;;;11.28;96.39;96774.34;4854631;29;20493;-81
2021/05/14 03:47:04;;;;;;;11.82;2.83;;;;;;;11.37;97.72;96783.47;4871013;29;20040;-83
2021/05/14 03:49:30;;;;;;;4.07;2.00;;;;;;;11.42;97.85;96792.88;4869966;29;20033;-84
2021/05/14 03:51:56;;;;;;;11.73;2.17;;;;;;;11.50;98.23;96788.75;4863096;29;20042;-84
2021/05/14 03:54:22;;;;;;;15.50;3.00;;;;;;;11.51;98.04;96793.97;4858260;29;20057;-84
2021/05/14 03:56:48;;;;;;;8.55;3.03;;;;;;;11.58;98.11;96786.31;4859091;29;20056;-84
2021/05/14 03:59:15;;;;;;;14.30;4.28;;;;;;;11.59;96.82;96782.66;4858668;29;20037;-84
2021/05/14 04:01:40;;;;;;;7.30;2.90;;;;;;;11.64;97.01;96788.50;4864201;29;20021;-84
2021/05/14 04:04:06;;;;;;;8.20;2.47;;;;;;;11.61;98.14;96784.25;4857290;29;20039;-83
2021/05/14 04:06:31;;;;;;;7.90;2.00;;;;;;;11.72;96.94;96792.31;4864747;29;20041;-82
2021/05/14 04:08:57;;;;;;;14.95;2.10;;;;;;;11.70;96.46;96778.19;4872185;29;20036;-81
2021/05/14 04:16:45;;;;;;;7.15;1.75;;;;;;;11.85;93.72;96770.78;4870613;29;20457;-80
2021/05/14 04:19:11;;;;;;;5.07;2.33;;;;;;;11.90;94.57;96779.31;4877355;29;20028;-81
2021/05/14 04:21:36;;;;;;;6.22;1.73;;;;;;;12.07;93.72;96784.16;4844484;29;20101;-79
2021/05/14 04:24:06;;;;;;;16.67;2.17;;;;;;;12.92;90.73;96786.03;4859116;29;20064;-78
2021/05/14 04:26:32;;;;;;;7.05;1.88;;;;;;;15.24;77.49;96788.78;4871398;29;20028;-80
2021/05/14 04:28:58;;;;;;;17.05;3.22;;;;;;;16.60;70.81;96791.88;4863231;29;20029;-80
2021/05/14 04:31:23;;;;;;;6.43;3.17;;;;;;;17.12;68.29;96817.28;4868822;29;20043;-80
2021/05/14 04:33:49;;;;;;;12.77;7.25;;;;;;;17.46;67.34;96807.47;4865031;29;20411;-80
2021/05/14 04:36:14;;;;;;;13.70;7.57;;;;;;;16.95;68.66;96805.44;4854555;29;20032;-80
2021/05/14 04:38:40;;;;;;;17.77;7.18;;;;;;;16.15;72.00;96818.78;4872230;29;20024;-81
2021/05/14 04:41:06;;;;;;;9.85;5.38;;;;;;;15.40;74.36;96814.19;4856113;29;20029;-80
2021/05/14 04:43:31;;;;;;;17.17;8.18;;;;;;;14.87;78.29;96807.47;4863051;29;20461;-79
2021/05/14 04:45:57;;;;;;;32.85;14.77;;;;;;;14.54;78.63;96790.72;4872851;29;20107;-80
2021/05/14 04:48:22;;;;;;;20.25;6.50;;;;;;;14.36;79.69;96800.44;4844500;29;20535;-79
2021/05/14 04:50:48;;;;;;;16.50;7.15;;;;;;;14.32;80.78;96798.97;4844647;29;20029;-81
2021/05/14 04:53:15;;;;;;;17.10;6.90;;;;;;;14.31;80.91;96809.84;4844698;29;20060;-80
2021/05/14 04:55:41;;;;;;;14.18;5.88;;;;;;;14.28;81.58;96810.97;4852434;29;20472;-80
2021/05/14 04:58:07;;;;;;;17.60;7.35;;;;;;;14.36;80.64;96819.28;4843009;29;20036;-79
2021/05/14 05:00:33;;;;;;;9.70;5.13;;;;;;;14.53;78.20;96821.31;4851684;29;20389;-80
2021/05/14 05:03:00;;;;;;;8.30;4.20;;;;;;;14.60;78.93;96822.47;4843926;29;20477;-80
2021/05/14 05:05:26;;;;;;;16.80;5.18;;;;;;;14.70;78.30;96827.88;4860520;29;20111;-80
2021/05/14 05:07:51;;;;;;;9.45;3.90;;;;;;;14.85;77.30;96825.63;4857443;29;20123;-80
2021/05/14 05:10:20;;;;;;;19.50;5.10;;;;;;;15.25;76.64;96817.44;4843986;29;20044;-79
2021/05/14 05:12:46;;;;;;;11.10;3.13;;;;;;;15.60;72.62;96837.47;4862853;29;20478;-79
2021/05/14 05:15:14;;;;;;;12.63;4.35;;;;;;;16.21;71.48;96840.59;4878031;29;20502;-80
2021/05/14 05:17:40;;;;;;;7.75;3.35;;;;;;;17.93;65.13;96847.81;4867916;29;20036;-80
2021/05/14 05:20:07;;;;;;;7.15;2.25;;;;;;;20.66;54.08;96846.84;4857939;29;20036;-79
2021/05/14 05:22:33;;;;;;;7.50;2.10;;;;;;;23.30;45.05;96865.03;4862190;29;20472;-79
2021/05/14 05:24:59;;;;;;;27.10;2.30;;;;;;;24.86;40.41;96869.56;4856928;29;20048;-80
2021/05/14 05:27:24;;;;;;;5.85;1.42;;;;;;;25.92;36.81;96865.41;4851003;29;20420;-80
2021/05/14 05:29:50;;;;;;;4.15;1.73;;;;;;;27.85;34.43;96864.78;4844078;29;20120;-80
2021/05/14 05:32:16;;;;;;;7.82;2.50;;;;;;;29.35;32.67;96868.25;4859369;29;20039;-80
2021/05/14 05:34:42;;;;;;;8.52;2.90;;;;;;;30.16;31.36;96881.66;4859167;29;20505;-80
2021/05/14 05:37:07;;;;;;;19.40;3.95;;;;;;;31.03;30.78;96888.41;4857482;29;20028;-80
2021/05/14 05:39:33;;;;;;;8.02;2.13;;;;;;;32.30;29.06;96883.72;4846943;29;20029;-80
2021/05/14 05:41:58;;;;;;;9.52;2.40;;;;;;;32.44;27.02;96890.63;4872757;29;20081;-80
2021/05/14 05:44:24;;;;;;;5.50;1.40;;;;;;;31.84;26.74;96890.25;4858371;29;20037;-79
2021/05/14 05:46:50;;;;;;;8.93;1.98;;;;;;;31.04;27.68;96890.09;4869310;29;20039;-80
2021/05/14 05:49:16;;;;;;;10.02;2.15;;;;;;;31.81;27.07;96893.50;4855012;29;20043;-80
2021/05/14 05:51:41;;;;;;;4.03;2.53;;;;;;;32.83;25.90;96892.47;4858864;29;20041;-80
2021/05/14 05:54:08;;;;;;;13.82;2.65;;;;;;;34.05;24.56;96895.16;4884249;29;20056;-80
2021/05/14 05:56:34;;;;;;;11.20;1.77;;;;;;;33.13;24.84;96904.06;4875193;29;20033;-79
2021/05/14 05:58:59;;;;;;;8.60;1.95;;;;;;;34.20;24.45;96892.56;4854224;29;20039;-81
2021/05/14 06:01:25;;;;;;;6.65;1.52;;;;;;;34.05;24.17;96898.75;4879899;29;20049;-80
2021/05/14 06:03:50;;;;;;;5.78;1.45;;;;;;;33.98;23.44;96891.72;4847130;29;20044;-81
2021/05/14 06:06:16;;;;;;;9.80;2.40;;;;;;;34.74;23.27;96894.28;4875763;29;20116;-79
2021/05/14 06:08:42;;;;;;;17.17;3.10;;;;;;;35.08;23.09;96897.63;4847954;29;20048;-81
2021/05/14 06:11:07;;;;;;;17.10;2.00;;;;;;;35.10;21.83;96889.06;4846750;29;20052;-80
2021/05/14 06:13:34;;;;;;;10.63;2.10;;;;;;;35.25;23.51;96909.50;4854330;29;20044;-80
2021/05/14 06:16:03;;;;;;;3.45;1.30;;;;;;;35.29;21.38;96898.63;4865534;29;20128;-80
2021/05/14 06:18:36;;;;;;;1.48;0.88;;;;;;;34.93;21.71;96889.16;4880811;29;20041;-81
2021/05/14 06:21:01;;;;;;;1.17;0.70;;;;;;;34.91;21.07;96890.53;4865275;29;20033;-80
2021/05/14 06:23:27;;;;;;;2.20;0.85;;;;;;;33.89;21.62;96901.59;4849655;29;20508;-80
2021/05/14 06:25:53;;;;;;;13.13;1.23;;;;;;;33.72;21.70;96894.16;4871449;29;20127;-81
2021/05/14 06:28:21;;;;;;;7.00;1.15;;;;;;;33.18;22.54;96895.84;4879995;29;20040;-81
2021/05/14 06:30:47;;;;;;;6.15;1.50;;;;;;;34.43;21.51;96906.16;4862446;29;20029;-82
2021/05/14 06:33:13;;;;;;;2.42;0.93;;;;;;;33.76;21.54;96898.09;4874622;29;20442;-81
2021/05/14 06:35:40;;;;;;;2.88;1.20;;;;;;;34.54;20.83;96907.97;4897092;29;20028;-81
2021/05/14 06:38:06;;;;;;;3.88;1.10;;;;;;;33.66;21.13;96917.38;4879654;29;20032;-81
2021/05/14 06:40:33;;;;;;;2.45;0.70;;;;;;;32.62;20.61;96887.66;4879798;29;20024;-81
2021/05/14 06:42:58;;;;;;;46.00;3.60;;;;;;;32.05;22.44;96903.44;4876530;29;20056;-81
2021/05/14 06:45:24;;;;;;;1.77;1.17;;;;;;;30.49;23.69;96890.31;4853427;29;20124;-81
2021/05/14 06:47:50;;;;;;;4.55;1.10;;;;;;;28.16;27.12;96906.09;4869892;29;20048;-80
2021/05/14 06:50:15;;;;;;;12.52;1.17;;;;;;;26.43;29.74;96915.94;4872079;29;20106;-81
2021/05/14 06:52:41;;;;;;;2.55;1.08;;;;;;;25.48;30.56;96932.47;4888046;29;20089;-80
2021/05/14 06:55:08;;;;;;;12.07;1.10;;;;;;;27.78;27.95;96930.78;4880018;29;20028;-81
2021/05/14 06:57:35;;;;;;;1.35;0.80;;;;;;;29.35;25.74;96926.13;4872485;29;20053;-81
2021/05/14 07:00:00;;;;;;;6.93;0.95;;;;;;;30.27;25.15;96921.44;4863248;29;20777;-80
2021/05/14 07:02:26;;;;;;;1.38;0.50;;;;;;;29.91;25.23;96928.69;4873799;29;20111;-81
2021/05/14 07:04:52;;;;;;;1.15;0.70;;;;;;;31.32;24.42;96923.34;4877197;29;20047;-80
2021/05/14 07:07:18;;;;;;;3.15;0.93;;;;;;;32.93;22.25;96919.50;4859721;29;20045;-81
2021/05/14 07:09:44;;;;;;;5.40;1.13;;;;;;;30.96;24.07;96907.00;4852661;29;20036;-80
2021/05/14 07:12:10;;;;;;;5.57;1.10;;;;;;;29.44;26.81;96926.69;4875982;29;20033;-80
2021/05/14 07:14:36;;;;;;;3.63;0.40;;;;;;;27.96;26.82;96919.09;4851715;29;20591;-81
2021/05/14 07:17:01;;;;;;;9.15;0.80;;;;;;;26.75;28.60;96922.50;4863242;29;20143;-80
2021/05/14 07:19:27;;;;;;;1.70;0.77;;;;;;;26.55;30.77;96935.41;4858497;29;20033;-80
2021/05/14 07:21:56;;;;;;;4.05;1.15;;;;;;;26.89;31.77;96935.19;4892055;29;20453;-80
2021/05/14 07:24:21;;;;;;;5.40;2.38;;;;;;;26.45;30.86;96926.72;4878888;29;20135;-81
2021/05/14 07:26:47;;;;;;;4.65;2.40;;;;;;;26.12;32.07;96941.16;4848091;29;20509;-80
2021/05/14 07:29:12;;;;;;;0.65;0.65;;;;;;;25.27;31.16;96919.72;4844894;29;20044;-80
2021/05/14 07:31:38;;;;;;;1.77;0.70;;;;;;;24.75;32.69;96924.81;4859286;29;20037;-80
2021/05/14 07:34:04;;;;;;;1.15;0.73;;;;;;;24.92;32.74;96917.19;4869230;29;20780;-81
2021/05/14 07:36:30;;;;;;;5.68;0.75;;;;;;;24.56;32.17;96920.00;4844799;29;20069;-81
2021/05/14 07:38:56;;;;;;;2.60;0.95;;;;;;;25.48;32.96;96923.41;4860269;29;20067;-79
2021/05/14 07:41:22;;;;;;;12.77;1.25;;;;;;;25.64;31.03;96912.13;4852864;29;20120;-80
2021/05/14 07:43:47;;;;;;;2.28;0.90;;;;;;;25.06;34.12;96919.81;4844998;29;20412;-80
2021/05/14 07:46:13;;;;;;;1.50;0.90;;;;;;;25.09;32.91;96924.03;4870553;29;20515;-81
2021/05/14 07:48:38;;;;;;;2.17;0.88;;;;;;;24.50;35.03;96929.00;4878864;29;20114;-80
2021/05/14 07:51:04;;;;;;;5.18;1.08;;;;;;;24.50;34.45;96921.66;4861976;29;20043;-79
2021/05/14 07:53:30;;;;;;;4.70;1.08;;;;;;;24.56;35.68;96920.00;4864592;29;20060;-80
2021/05/14 07:55:55;;;;;;;5.18;0.80;;;;;;;23.85;34.18;96913.59;4862744;29;20386;-79
2021/05/14 07:58:22;;;;;;;3.67;0.85;;;;;;;24.01;33.81;96907.91;4870841;29;20031;-79
2021/05/14 08:00:49;;;;;;;2.75;0.98;;;;;;;24.08;34.17;96908.81;4871369;29;20029;-81
2021/05/14 08:03:18;;;;;;;5.38;1.00;;;;;;;25.40;33.52;96923.56;4869758;29;20037;-79
2021/05/14 08:05:46;;;;;;;9.85;1.70;;;;;;;27.12;29.65;96907.31;4846505;29;20037;-81
2021/05/14 08:08:14;;;;;;;2.33;1.02;;;;;;;27.20;28.56;96887.84;4872176;29;20603;-80
2021/05/14 08:10:42;;;;;;;5.47;1.20;;;;;;;28.82;27.00;96905.66;4865349;29;20040;-81
2021/05/14 08:13:10;;;;;;;9.73;0.90;;;;;;;30.53;24.91;96904.50;4864853;29;20025;-80
2021/05/14 08:15:38;;;;;;;5.13;1.42;;;;;;;31.54;23.58;96907.88;4880756;29;20481;-81
2021/05/14 08:18:04;;;;;;;12.10;0.80;;;;;;;32.54;22.55;96902.75;4872340;29;20557;-80
2021/05/14 08:20:29;;;;;;;1.67;0.60;;;;;;;33.15;21.84;96896.38;4861743;29;20065;-80
2021/05/14 08:22:55;;;;;;;1.52;0.68;;;;;;;33.19;20.46;96899.47;4853617;29;20111;-81
2021/05/14 08:25:21;;;;;;;2.08;0.82;;;;;;;32.90;22.63;96906.16;4846339;29;20040;-81
2021/05/14 08:27:46;;;;;;;9.43;1.33;;;;;;;34.39;20.69;96905.03;4852759;29;20521;-82
2021/05/14 08:30:13;;;;;;;1.95;0.73;;;;;;;35.44;20.15;96895.97;4864667;29;20036;-82
2021/05/14 08:32:39;;;;;;;5.65;1.13;;;;;;;35.98;19.56;96906.88;4865296;29;20128;-80
2021/05/14 08:35:08;;;;;;;7.72;1.85;;;;;;;36.41;17.81;96887.00;4872127;29;20036;-80
2021/05/14 08:37:35;;;;;;;3.50;0.88;;;;;;;35.34;18.40;96884.78;4862232;29;20390;-81
2021/05/14 08:40:02;;;;;;;1.67;0.80;;;;;;;33.39;20.08;96876.72;4877249;29;20029;-81
2021/05/14 08:42:28;;;;;;;4.18;1.20;;;;;;;32.52;20.53;96882.75;4880593;29;20056;-81
2021/05/14 08:44:53;;;;;;;2.83;0.50;;;;;;;31.25;22.47;96892.25;4865898;29;20109;-82
2021/05/14 08:47:20;;;;;;;6.38;0.95;;;;;;;29.99;25.22;96905.47;4878156;29;20037;-80
2021/05/14 08:49:46;;;;;;;7.30;0.93;;;;;;;28.98;27.37;96916.94;4846293;29;20403;-81
2021/05/14 08:52:14;;;;;;;7.00;1.17;;;;;;;28.51;27.29;96910.13;4847249;29;20033;-80
2021/05/14 08:54:43;;;;;;;6.57;0.88;;;;;;;27.93;29.06;96911.28;4859840;29;20116;-81
2021/05/14 08:57:09;;;;;;;3.30;0.77;;;;;;;28.42;28.25;96922.47;4846861;29;20037;-79
2021/05/14 08:59:35;;;;;;;3.65;1.40;;;;;;;28.58;26.87;96909.22;4880397;29;20063;-82
2021/05/14 09:02:01;;;;;;;5.47;1.05;;;;;;;29.17;28.68;96931.59;4879813;29;20424;-82
2021/05/14 09:04:33;;;;;;;4.95;0.88;;;;;;;31.56;24.80;96911.22;4869182;29;20037;-82
2021/05/14 09:07:11;;;;;;;;;;;;;;;31.38;23.27;96902.22;4846561;29;20100;-81
2021/05/14 09:09:37;;;;;;;1.60;1.05;;;;;;;29.45;25.07;96890.63;4853212;29;19919;-81
2021/05/14 09:12:02;;;;;;;2.85;1.00;;;;;;;29.08;27.22;96910.91;4845728;29;20128;-81
2021/05/14 09:14:42;;;;;;;7.10;0.90;;;;;;;28.29;26.59;96914.28;4885125;29;20056;-80
2021/05/14 09:17:18;;;;;;;4.88;0.93;;;;;;;28.63;25.35;96918.47;4846045;29;20028;-80
2021/05/14 09:19:47;;;;;;;2.28;0.80;;;;;;;28.57;25.81;96915.78;4846234;29;20031;-81
2021/05/14 09:22:17;;;;;;;1.23;0.65;;;;;;;28.02;27.41;96924.53;4853927;29;20110;-80
2021/05/14 09:24:47;;;;;;;9.32;1.02;;;;;;;27.64;27.21;96922.81;4852395;29;20390;-80
2021/05/14 09:27:36;;;;;;;2.05;0.88;;;;;;;26.73;29.13;96921.88;4853398;29;20485;-80
2021/05/14 09:30:04;;;;;;;3.05;0.85;;;;;;;26.47;29.69;96919.97;4861127;29;20037;-80
2021/05/14 09:32:31;;;;;;;1.30;0.73;;;;;;;27.16;29.61;96925.91;4876025;29;20037;-80
2021/05/14 09:34:59;;;;;;;1.67;0.50;;;;;;;28.01;26.91;96916.53;4847617;29;20041;-80
2021/05/14 09:37:27;;;;;;;3.72;0.85;;;;;;;30.19;24.97;96897.75;4874312;29;20115;-80
2021/05/14 09:40:20;;;;;;;5.63;0.60;;;;;;;32.97;22.30;96915.16;4868449;29;20044;-81
2021/05/14 09:42:47;;;;;;;3.03;0.73;;;;;;;34.04;21.32;96899.00;4883500;29;20032;-81
2021/05/14 09:45:42;;;;;;;0.43;0.43;;;;;;;33.22;20.08;96883.13;4883516;29;20096;-80
2021/05/14 09:48:26;;;;;;;5.65;1.42;;;;;;;29.69;24.07;96894.34;4868195;29;20041;-81
2021/05/14 09:50:51;;;;;;;6.13;1.48;;;;;;;29.02;24.37;96895.28;4880020;29;20028;-81
2021/05/14 09:53:22;;;;;;;1.48;0.75;;;;;;;29.31;24.00;96900.13;4883049;29;20049;-80
2021/05/14 09:55:51;;;;;;;3.28;0.43;;;;;;;29.21;23.08;96887.91;4883555;29;20087;-81
2021/05/14 09:58:21;;;;;;;1.10;0.80;;;;;;;28.00;25.46;96884.56;4867459;29;20508;-81
2021/05/14 10:00:47;;;;;;;2.10;0.63;;;;;;;26.90;25.61;96895.72;4883591;29;20028;-81
2021/05/14 10:03:25;;;;;;;0.85;0.70;;;;;;;26.02;26.83;96894.13;4852140;29;20025;-81
2021/05/14 10:05:55;;;;;;;1.92;0.70;;;;;;;25.96;27.49;96897.72;4872384;29;20041;-80
2021/05/14 10:08:23;;;;;;;9.52;0.90;;;;;;;26.37;26.64;96892.94;4848604;29;20140;-80
2021/05/14 10:10:50;;;;;;;10.90;1.08;;;;;;;26.14;27.62;96887.00;4849341;29;20028;-80
2021/05/14 10:13:16;;;;;;;7.25;0.82;;;;;;;26.15;28.11;96888.69;4871649;29;20025;-80
2021/05/14 10:15:41;;;;;;;8.10;0.70;;;;;;;25.83;28.02;96895.78;4864101;29;20457;-80
2021/05/14 10:18:14;;;;;;;12.75;0.95;;;;;;;25.59;29.06;96892.72;4864346;29;20029;-80
2021/05/14 10:20:41;;;;;;;3.03;0.40;;;;;;;28.25;25.06;96881.91;4863853;29;20036;-80
2021/05/14 10:23:07;;;;;;;13.68;1.05;;;;;;;28.30;24.63;96879.34;4870518;29;20044;-80
2021/05/14 10:25:39;;;;;;;9.88;0.98;;;;;;;27.87;25.77;96885.50;4864447;29;20037;-81
2021/05/14 10:28:09;;;;;;;3.60;1.10;;;;;;;27.50;26.28;96889.06;4880535;29;20025;-80
2021/05/14 10:30:35;;;;;;;0.55;0.45;;;;;;;26.42;27.66;96895.88;4863557;29;20036;-80
2021/05/14 10:33:02;;;;;;;5.68;0.98;;;;;;;27.17;27.22;96889.13;4848259;29;20044;-80
2021/05/14 10:35:29;;;;;;;11.43;7.70;;;;;;;28.99;24.62;96880.06;4894638;29;20036;-81
2021/05/14 10:38:05;;;;;;;21.05;2.40;;;;;;;28.18;25.21;96890.22;4848161;29;20087;-81
2021/05/14 10:40:31;;;;;;;1.55;0.60;;;;;;;27.14;27.40;96896.94;4895860;29;20057;-80
2021/05/14 10:43:01;;;;;;;3.60;0.93;;;;;;;27.15;27.28;96888.50;4898853;29;20068;-80
2021/05/14 10:45:32;;;;;;;1.83;0.80;;;;;;;26.32;27.24;96894.63;4866322;29;20423;-80
2021/05/14 10:47:59;;;;;;;4.00;0.90;;;;;;;26.04;29.12;96903.00;4869116;29;20040;-80
2021/05/14 10:50:41;;;;;;;9.88;0.73;;;;;;;25.43;29.27;96893.91;4848612;29;20055;-81
2021/05/14 10:53:16;;;;;;;1.70;0.45;;;;;;;24.90;30.57;96906.44;4866947;29;20084;-80
2021/05/14 10:55:42;;;;;;;3.20;1.08;;;;;;;25.03;32.02;96906.53;4879796;29;20496;-79
2021/05/14 10:58:08;;;;;;;5.18;1.27;;;;;;;25.08;30.79;96904.00;4848366;29;20037;-79
2021/05/14 11:00:35;;;;;;;3.08;0.43;;;;;;;25.01;30.59;96899.56;4873753;29;20051;-78
2021/05/14 11:03:13;;;;;;;2.38;0.55;;;;;;;25.40;31.06;96893.44;4882541;29;20043;-81
2021/05/14 11:05:40;;;;;;;1.80;0.68;;;;;;;25.90;29.51;96895.78;4898459;29;20489;-80
2021/05/14 11:08:08;;;;;;;3.75;0.75;;;;;;;26.53;29.86;96896.31;4882147;29;20036;-80
2021/05/14 11:10:35;;;;;;;1.98;0.80;;;;;;;26.72;29.46;96879.03;4873770;29;20044;-80
2021/05/14 11:13:37;;;;;;;4.10;0.57;;;;;;;27.58;28.62;96885.22;4861680;29;20119;-81
2021/05/14 11:16:34;;;;;;;4.28;0.80;;;;;;;27.75;26.58;96869.91;4857168;29;20434;-81
2021/05/14 11:19:30;;;;;;;4.07;0.70;;;;;;;28.09;26.74;96866.78;4856906;29;20405;-81
2021/05/14 11:22:04;;;;;;;2.10;0.82;;;;;;;29.11;25.15;96863.63;4847555;29;20060;-81
2021/05/14 11:24:39;;;;;;;1.77;0.80;;;;;;;31.29;24.61;96871.31;4862925;29;20033;-81
2021/05/14 11:27:07;;;;;;;4.65;0.70;;;;;;;32.03;21.65;96847.47;4879632;29;20096;-81
2021/05/14 11:30:03;;;;;;;0.85;0.47;;;;;;;32.51;20.43;96849.78;4847243;29;20044;-81
2021/05/14 11:32:42;;;;;;;2.30;0.55;;;;;;;32.31;21.83;96852.16;4842894;29;20132;-81
2021/05/14 11:35:13;;;;;;;3.90;1.02;;;;;;;33.37;20.87;96856.75;4847486;29;20098;-81
2021/05/14 11:37:39;;;;;;;;;;;;;;;33.49;18.90;96827.78;4870572;29;20135;-81
2021/05/14 11:40:12;;;;;;;1.15;0.90;;;;;;;32.46;21.37;96836.66;4867294;29;20056;-81
2021/05/14 11:42:39;;;;;;;1.60;0.52;;;;;;;32.44;21.28;96830.53;4881040;29;20036;-81
2021/05/14 11:45:10;;;;;;;8.23;0.95;;;;;;;30.26;24.01;96832.28;4881128;29;20135;-81
2021/05/14 11:47:36;;;;;;;3.75;0.85;;;;;;;29.36;25.06;96833.28;4865241;29;20464;-81
2021/05/14 11:50:02;;;;;;;7.30;1.00;;;;;;;29.63;25.77;96839.28;4857671;29;20040;-81
2021/05/14 11:52:35;;;;;;;5.68;1.02;;;;;;;29.43;25.75;96851.44;4865522;29;20502;-81
2021/05/14 11:55:07;;;;;;;5.15;1.02;;;;;;;28.78;26.94;96855.69;4885887;29;20047;-82